• Join FlightAware (Why Join?)
  • Login
  • US Flag 
02:52AM EST


 

Airport Tracker/Info


-or-


 

Live Flight TrackerFlight Track Log ✈ N885WT ✈ 13-Sep-2013 ✈ EGSS / STN - KCRQ

Flight Track Log - Related Links

Times and Time Zones

All times are in EDT time to prevent confusion due to time zone crossing. See the N885WT flight status page for this flight to view local times or setup timezone preferences in your user account.

Time Position Orientation Groundspeed Altitude Reporting Facility
EDT Latitude Longitude Course Direction KTS MPH feet Rate Location/Type
07:23PM 61.5728 -60.0770 193° South  Level Estimated
07:24PM 61.5604 -60.3363 264° West  Level FlightAware Approximate
07:25PM 61.5356 -60.5915 193° South  Level Estimated
07:26PM 61.5107 -60.8436 258° West  Level Estimated
07:27PM 61.4853 -61.0953 258° West  Level Estimated
07:28PM 61.4594 -61.3466 258° West  Level Estimated
07:29PM 61.4331 -61.5975 258° West  Level Estimated
07:30PM 61.4063 -61.8480 258° West  Level Estimated
07:31PM 61.3790 -62.0980 257° West  Level Estimated
07:32PM 61.3513 -62.3476 257° West  Level Estimated
07:33PM 61.3231 -62.5967 257° West  Level Estimated
07:34PM 61.2945 -62.8454 257° West  Level Estimated
07:35PM 61.2654 -63.0936 256° West  Level Estimated
07:36PM 61.2359 -63.3414 256° West  Level Estimated
07:37PM 61.2059 -63.5887 256° West  Level Estimated
07:38PM 61.1754 -63.8355 256° West  Level Estimated
07:39PM 61.1446 -64.0818 256° West  Level Estimated
07:40PM 61.1132 -64.3277 255° West  Level Estimated
07:41PM 61.0814 -64.5731 255° West  Level Estimated
07:42PM 61.0492 -64.8179 255° West  Level Estimated
07:43PM 61.0166 -65.0623 255° West  Level Estimated
07:44PM 60.9835 -65.3062 254° West  Level Estimated
07:45PM 60.9499 -65.5495 254° West  Level Estimated
07:46PM 60.9159 -65.7924 254° West  Level Estimated
07:47PM 60.8815 -66.0347 254° West  Level Estimated
07:48PM 60.8467 -66.2765 254° West  Level Estimated
07:49PM 60.8114 -66.5177 253° West  Level Estimated
07:50PM 60.7757 -66.7585 253° West  Level Estimated
07:51PM 60.7395 -66.9986 253° West  Level Estimated
07:52PM 60.7029 -67.2383 253° West  Level Estimated
07:53PM 60.6659 -67.4774 253° West  Level Estimated
07:54PM 60.6285 -67.7160 252° West  Level Estimated
07:55PM 60.5906 -67.9539 252° West  Level Estimated
07:56PM 60.5524 -68.1914 252° West  Level Estimated
07:57PM 60.5137 -68.4282 252° West  Level Estimated
07:58PM 60.4746 -68.6645 252° West  Level Estimated
07:59PM 60.4351 -68.9003 251° West  Level Estimated
08:00PM 60.3951 -69.1354 251° West  Level Estimated
08:01PM 60.3548 -69.3700 251° West  Level Estimated
08:02PM 60.3140 -69.6040 251° West  Level Estimated
08:03PM 60.2728 -69.8374 251° West  Level Estimated
08:04PM 60.2312 -70.0702 250° West  Level Estimated
08:05PM 60.1892 -70.3024 250° West  Level Estimated
08:06PM 60.1468 -70.5340 250° West  Level Estimated
08:07PM 60.1040 -70.7650 250° West  Level Estimated
08:08PM 60.0608 -70.9955 249° West  Level Estimated
08:09PM 60.0172 -71.2253 249° West  Level Estimated
08:10PM 59.9732 -71.4545 249° West  Level Estimated
08:11PM 59.9288 -71.6831 249° West  Level Estimated
08:12PM 59.8840 -71.9110 249° West  Level Estimated
08:13PM 59.8388 -72.1384 249° West  Level Estimated
08:14PM 59.7933 -72.3652 248° West  Level Estimated
08:15PM 59.7473 -72.5913 248° West  Level Estimated
08:16PM 59.7010 -72.8168 248° West  Level Estimated
08:17PM 59.6542 -73.0417 248° West  Level Estimated
08:18PM 59.6071 -73.2659 248° West  Level Estimated
08:19PM 59.5596 -73.4895 247° West  Level Estimated
08:20PM 59.5117 -73.7125 247° West  Level Estimated
08:21PM 59.4635 -73.9349 247° West  Level Estimated
08:22PM 59.4148 -74.1566 247° West  Level Estimated
08:23PM 59.3658 -74.3776 247° West  Level Estimated
08:24PM 59.3164 -74.5981 246° West  Level Estimated
08:25PM 59.2667 -74.8179 246° West  Level Estimated
08:26PM 59.2165 -75.0370 246° West  Level Estimated
08:27PM 59.1660 -75.2555 246° West  Level Estimated
08:28PM 59.1152 -75.4734 246° West  Level Estimated
08:29PM 59.0640 -75.6906 245° Southwest  Level Estimated
08:30PM 59.0124 -75.9071 245° Southwest  Level Estimated
08:31PM 58.9604 -76.1230 245° Southwest  Level Estimated
08:32PM 58.9081 -76.3383 245° Southwest  Level Estimated
08:33PM 58.8555 -76.5529 245° Southwest  Level Estimated
08:34PM 58.8024 -76.7669 245° Southwest  Level Estimated
08:35PM 58.7491 -76.9801 244° Southwest  Level Estimated
08:36PM 58.6954 -77.1928 244° Southwest  Level Estimated
08:37PM 58.6413 -77.4048 244° Southwest  Level Estimated
08:38PM 58.5869 -77.6161 244° Southwest  Level Estimated
08:39PM 58.5321 -77.8268 244° Southwest  Level Estimated
08:40PM 58.4770 -78.0368 243° Southwest  Level Estimated
08:41PM 58.4216 -78.2461 243° Southwest  Level Estimated
08:42PM 58.3658 -78.4548 243° Southwest  Level Estimated
08:43PM 58.3096 -78.6628 243° Southwest  Level Estimated
08:44PM 58.2532 -78.8702 243° Southwest  Level Estimated
08:45PM 58.1964 -79.0769 243° Southwest  Level Estimated
08:46PM 58.1392 -79.2830 242° Southwest  Level Estimated
08:47PM 58.0818 -79.4883 242° Southwest  Level Estimated
08:48PM 58.0240 -79.6930 242° Southwest  Level Estimated
08:49PM 57.9659 -79.8971 242° Southwest  Level Estimated
08:50PM 57.9074 -80.1005 242° Southwest  Level Estimated
08:51PM 57.8487 -80.3032 241° Southwest  Level Estimated
08:52PM 57.7896 -80.5053 241° Southwest  Level Estimated
08:53PM 57.7302 -80.7067 241° Southwest  Level Estimated
08:54PM 57.6704 -80.9074 241° Southwest  Level Estimated
08:55PM 57.6104 -81.1075 241° Southwest  Level Estimated
08:56PM 57.5500 -81.3070 241° Southwest  Level Estimated
08:57PM 57.4893 -81.5057 240° Southwest  Level Estimated
08:58PM 57.4284 -81.7038 240° Southwest  Level Estimated
08:59PM 57.3671 -81.9013 240° Southwest  Level Estimated
09:00PM 57.3055 -82.0980 240° Southwest  Level Estimated
09:01PM 57.2436 -82.2942 240° Southwest  Level Estimated
09:02PM 57.1814 -82.4896 240° Southwest  Level Estimated
09:03PM 57.1188 -82.6844 239° Southwest  Level Estimated
09:04PM 57.0560 -82.8785 239° Southwest  Level Estimated
09:05PM 56.9929 -83.0720 239° Southwest  Level Estimated
09:06PM 56.9295 -83.2649 239° Southwest  Level Estimated
09:07PM 56.8658 -83.4570 239° Southwest  Level Estimated
09:08PM 56.8018 -83.6486 239° Southwest  Level Estimated
09:09PM 56.7375 -83.8394 239° Southwest  Level Estimated
09:10PM 56.6729 -84.0296 238° Southwest  Level Estimated
09:11PM 56.6080 -84.2192 238° Southwest  Level Estimated
09:12PM 56.5429 -84.4081 238° Southwest  Level Estimated
09:13PM 56.4774 -84.5963 238° Southwest  Level Estimated
09:14PM 56.4117 -84.7839 238° Southwest  Level Estimated
09:15PM 56.3457 -84.9709 238° Southwest  Level Estimated
09:16PM 56.2794 -85.1572 237° Southwest  Level Estimated
09:17PM 56.2128 -85.3429 237° Southwest  Level Estimated
09:18PM 56.1460 -85.5279 237° Southwest  Level Estimated
09:19PM 56.0788 -85.7122 237° Southwest  Level Estimated
09:20PM 56.0114 -85.8960 237° Southwest  Level Estimated
09:21PM 55.9437 -86.0791 237° Southwest  Level Estimated
09:22PM 55.8758 -86.2615 236° Southwest  Level Estimated
09:23PM 55.8076 -86.4433 236° Southwest  Level Estimated
09:24PM 55.7391 -86.6245 236° Southwest  Level Estimated
09:25PM 55.6704 -86.8050 236° Southwest  Level Estimated
09:26PM 55.6014 -86.9849 236° Southwest  Level Estimated
09:27PM 55.5321 -87.1642 236° Southwest  Level Estimated
09:28PM 55.4626 -87.3428 236° Southwest  Level Estimated
09:29PM 55.3928 -87.5209 235° Southwest  Level Estimated
09:30PM 55.3227 -87.6982 235° Southwest  Level Estimated
09:31PM 55.2524 -87.8750 235° Southwest  Level Estimated
09:31PM 59.6333 -96.7167 234° Southwest 460 529 43,000  Level Edmonton Center
09:32PM 55.1819 -88.0511 235° Southwest  Level Estimated
09:32PM 59.5333 -96.8667 217° Southwest 460 529 43,000  Level Edmonton Center
09:33PM 55.1111 -88.2266 235° Southwest  Level Estimated
09:33PM 59.4500 -97.0333 226° Southwest 450 518 43,000  Level Edmonton Center
09:34PM 55.0400 -88.4015 235° Southwest  Level Estimated
09:34PM 59.3333 -97.2167 219° Southwest 450 518 43,000  Level Edmonton Center
09:35PM 54.9687 -88.5758 235° Southwest  Level Estimated
09:35PM 59.2500 -97.3833 226° Southwest 450 518 43,000  Level Edmonton Center
09:36PM 54.8971 -88.7494 234° Southwest  Level Estimated
09:36PM 59.1500 -97.5333 218° Southwest 450 518 43,000  Level Edmonton Center
09:37PM 59.0500 -97.6833 218° Southwest 450 518 43,000  Level Edmonton Center
09:38PM 58.9667 -97.8333 223° Southwest 450 518 43,000  Level Edmonton Center
09:39PM 58.8500 -98.0333 222° Southwest 460 529 43,000  Level Edmonton Center
09:40PM 58.7667 -98.1833 223° Southwest 470 541 43,000  Level Edmonton Center
09:41PM 58.6500 -98.3333 214° Southwest 460 529 43,000  Level Edmonton Center
09:42PM 58.5500 -98.4833 218° Southwest 460 529 43,000  Level Edmonton Center
09:43PM 58.4500 -98.6667 224° Southwest 460 529 43,000  Level Edmonton Center
09:44PM 58.3500 -98.8167 218° Southwest 460 529 43,000  Level Edmonton Center
09:45PM 58.2500 -98.9833 221° Southwest 460 529 43,000  Level Edmonton Center
09:46PM 58.1667 -99.1333 224° Southwest 460 529 43,000  Level Edmonton Center
09:47PM 58.0667 -99.3000 221° Southwest 470 541 43,000  Level Winnipeg Center
09:48PM 57.9667 -99.4500 219° Southwest 470 541 43,000  Level Winnipeg Center
09:49PM 57.8667 -99.6000 219° Southwest 470 541 43,000  Level Winnipeg Center
09:50PM 57.7667 -99.7833 224° Southwest 470 541 43,000  Level Winnipeg Center
09:51PM 57.6833 -99.9000 217° Southwest 470 541 43,000  Level Winnipeg Center
09:52PM 57.5667 -100.0500 215° Southwest 470 541 43,000  Level Winnipeg Center
09:53PM 57.4667 -100.2333 225° Southwest 470 541 43,000  Level Winnipeg Center
09:54PM 57.3667 -100.3667 216° Southwest 460 529 43,000  Level Winnipeg Center
09:55PM 57.2667 -100.5167 219° Southwest 460 529 43,000  Level Winnipeg Center
09:56PM 57.1667 -100.6667 219° Southwest 460 529 43,000  Level Winnipeg Center
09:57PM 57.0500 -100.8000 212° Southwest 460 529 43,000  Level Winnipeg Center
09:58PM 56.9667 -100.9500 224° Southwest 460 529 43,000  Level Winnipeg Center
09:59PM 56.8500 -101.1000 215° Southwest 460 529 43,000  Level Winnipeg Center
10:00PM 56.7500 -101.2333 216° Southwest 460 529 43,000  Level Winnipeg Center
10:01PM 56.6500 -101.3667 216° Southwest 460 529 43,000  Level Winnipeg Center
10:02PM 56.5667 -101.5167 225° Southwest 450 518 43,000  Level Winnipeg Center
10:03PM 56.4500 -101.6500 212° Southwest 450 518 43,000  Level Winnipeg Center
10:04PM 56.3500 -101.8000 220° Southwest 450 518 43,000  Level Winnipeg Center
10:05PM 56.2667 -101.9333 222° Southwest 460 529 43,000  Level Winnipeg Center
10:06PM 56.1500 -102.0667 212° Southwest 450 518 43,000  Level Winnipeg Center
10:07PM 56.0500 -102.2000 217° Southwest 470 541 43,000  Level Winnipeg Center
10:08PM 55.9500 -102.3500 220° Southwest 460 529 43,000  Level Winnipeg Center
10:09PM 55.8500 -102.4833 217° Southwest 450 518 43,000  Level Winnipeg Center
10:10PM 55.7500 -102.6167 217° Southwest 450 518 43,000  Level Winnipeg Center
10:11PM 55.6333 -102.7500 213° Southwest 450 518 43,000  Level Winnipeg Center
10:12PM 55.5500 -102.8833 222° Southwest 450 518 43,000  Level Winnipeg Center
10:13PM 55.4333 -102.9833 206° Southwest 450 518 43,000  Level Winnipeg Center
10:14PM 55.3333 -103.1500 224° Southwest 450 518 43,000  Level Winnipeg Center
10:15PM 55.2500 -103.2833 222° Southwest 450 518 43,000  Level Winnipeg Center
10:16PM 55.1333 -103.3833 206° Southwest 450 518 43,000  Level Winnipeg Center
10:17PM 55.0333 -103.5167 217° Southwest 450 518 43,000  Level Winnipeg Center
10:18PM 54.9333 -103.6500 217° Southwest 450 518 43,000  Level Winnipeg Center
10:19PM 54.8333 -103.7667 214° Southwest 450 518 43,000  Level Winnipeg Center
10:20PM 54.7167 -103.9000 213° Southwest 450 518 43,000  Level Winnipeg Center
10:21PM 54.6167 -104.0167 214° Southwest 460 529 43,000  Level Winnipeg Center
10:22PM 54.5167 -104.1500 218° Southwest 460 529 43,000  Level Winnipeg Center
10:23PM 54.4167 -104.2833 218° Southwest 450 518 43,000  Level Winnipeg Center
10:24PM 54.3000 -104.4000 210° Southwest 450 518 43,000  Level Winnipeg Center
10:25PM 54.2000 -104.5333 218° Southwest 450 518 43,000  Level Winnipeg Center
10:26PM 54.1000 -104.6500 214° Southwest 460 529 43,000  Level Winnipeg Center
10:27PM 54.0000 -104.7833 218° Southwest 460 529 43,000  Level Winnipeg Center
10:28PM 53.8833 -104.9000 211° Southwest 460 529 43,000  Level Winnipeg Center
10:29PM 53.7833 -105.0167 215° Southwest 470 541 43,000  Level Winnipeg Center
10:30PM 53.6667 -105.1500 214° Southwest 470 541 43,000  Level Winnipeg Center
10:31PM 53.5667 -105.2833 218° Southwest 470 541 43,000  Level Winnipeg Center
10:32PM 53.4667 -105.3833 211° Southwest 460 529 43,000  Level Winnipeg Center
10:33PM 53.3333 -105.5333 214° Southwest 470 541 43,000  Level Winnipeg Center
10:34PM 53.2500 -105.6500 220° Southwest 470 541 43,000  Level Winnipeg Center
10:35PM 53.1167 -105.7667 208° Southwest 470 541 43,000  Level Winnipeg Center
10:36PM 53.0333 -105.8833 220° Southwest 470 541 43,000  Level Winnipeg Center
10:37PM 52.9167 -105.9833 207° Southwest 470 541 43,000  Level Winnipeg Center
10:38PM 52.8167 -106.1000 215° Southwest 460 529 43,000  Level Winnipeg Center
10:39PM 52.7000 -106.2167 211° Southwest 450 518 43,000  Level Winnipeg Center
10:40PM 52.5833 -106.3167 208° Southwest 450 518 43,000  Level Winnipeg Center
10:41PM 52.4833 -106.4333 215° Southwest 450 518 43,000  Level Winnipeg Center
10:42PM 52.3667 -106.5500 211° Southwest 460 529 43,000  Level Winnipeg Center
10:43PM 52.2667 -106.6333 207° Southwest 450 518 43,000  Level Winnipeg Center
10:44PM 52.1500 -106.7500 212° Southwest 460 529 43,000  Level Winnipeg Center
10:45PM 52.0333 -106.8000 195° South 480 552 43,000  Level Winnipeg Center
10:46PM 51.9000 -106.8833 201° Southwest 470 541 43,000  Level Winnipeg Center
10:47PM 51.7833 -106.9500 199° South 470 541 43,000  Level Winnipeg Center
10:48PM 51.6500 -107.0167 197° South 460 529 43,000  Level Winnipeg Center
10:49PM 51.5333 -107.0833 200° South 460 529 43,000  Level Winnipeg Center
10:50PM 51.4333 -107.1333 197° South 460 529 43,000  Level Winnipeg Center
10:51PM 51.2833 -107.2167 199° South 460 529 43,000  Level Winnipeg Center
10:52PM 51.1833 -107.2667 197° South 460 529 43,000  Level Winnipeg Center
10:53PM 51.0333 -107.3500 199° South 460 529 43,000  Level Winnipeg Center
10:54PM 50.9333 -107.4000 197° South 460 529 43,000  Level Winnipeg Center
10:55PM 50.8000 -107.4500 193° South 460 529 43,000  Level Winnipeg Center
10:56PM 50.6833 -107.5333 204° Southwest 460 529 43,000  Level Winnipeg Center
10:57PM 50.5667 -107.5833 195° South 460 529 43,000  Level Winnipeg Center
10:58PM 50.4333 -107.6333 193° South 460 529 43,000  Level Winnipeg Center
10:59PM 50.3000 -107.7000 198° South 470 541 43,000  Level Winnipeg Center
11:00PM 50.1833 -107.7833 205° Southwest 470 541 43,000  Level Winnipeg Center
11:01PM 50.0667 -107.8333 195° South 470 541 43,000  Level Winnipeg Center
11:02PM 49.9500 -107.9167 205° Southwest 460 529 43,000  Level Winnipeg Center
11:03PM 49.8333 -107.9833 200° South 460 529 43,000  Level Winnipeg Center
11:04PM 49.7167 -108.0667 205° Southwest 450 518 43,000  Level Winnipeg Center
11:05PM 49.6000 -108.1500 205° Southwest 470 541 43,000  Level Winnipeg Center
11:06PM 49.4667 -108.2167 198° South 460 529 43,000  Level Winnipeg Center
11:07PM 49.3667 -108.3000 208° Southwest 460 529 43,000  Level Winnipeg Center
11:08PM 49.2333 -108.3667 198° South 450 518 43,000  Level Winnipeg Center
11:09PM 49.1333 -108.4500 209° Southwest 460 529 43,000  Level Winnipeg Center
11:10PM 49.0000 -108.5000 194° South 450 518 43,000  Level Winnipeg Center
11:11PM 48.8833 -108.5667 201° Southwest 460 529 43,000  Level Winnipeg Center
11:12PM 48.7667 -108.6500 205° Southwest 460 529 43,000  Level Winnipeg Center
11:13PM 48.6667 -108.7167 194° South 460 529 43,000  Level Winnipeg Center
11:14PM 48.5883 -108.7467 200° South  Level FlightAware Approximate
11:14PM 48.5333 -108.7833 198° South 460 529 43,000  Level Winnipeg Center
11:15PM 48.4167 -108.8667 205° Southwest 450 518 43,000  Level Winnipeg Center
11:16PM 48.2833 -108.9333 198° South 460 529 43,000  Level Winnipeg Center
11:17PM 48.1833 -108.9833 198° South 460 529 43,000  Level Winnipeg Center
11:18PM 48.0500 -109.0500 198° South 460 529 43,000  Level Winnipeg Center
11:19PM 47.9500 -109.1333 209° Southwest 460 529 43,000  Level Winnipeg Center
11:20PM 47.8167 -109.2000 199° South 460 529 43,000  Level Winnipeg Center
11:21PM 47.7574 -109.2033 201° Southwest  Level FlightAware Approximate
11:21PM 47.7167 -109.2667 204° Southwest 470 541 43,000  Level Winnipeg Center
11:22PM 47.6394 -109.2703 201° Southwest  Level FlightAware Approximate
11:22PM 47.5833 -109.3167 194° South 460 529 43,000  Level Winnipeg Center
11:23PM 47.5214 -109.3370 201° Southwest  Level FlightAware Approximate
11:23PM 47.4500 -109.4000 203° Southwest 470 541 43,000  Level Winnipeg Center
11:24PM 47.4033 -109.4033 201° Southwest  Level FlightAware Approximate
11:24PM 47.3500 -109.4500 199° South 450 518 43,000  Level Winnipeg Center
11:25PM 47.2851 -109.4694 201° Southwest  Level FlightAware Approximate
11:25PM 47.2167 -109.5167 199° South 470 541 43,000  Level Winnipeg Center
11:26PM 47.1670 -109.5352 201° Southwest  Level FlightAware Approximate
11:26PM 47.0889 -109.5889 201° Southwest 464 534 43,000  Level Salt Lake Center
11:27PM 47.0487 -109.6005 194° South  Level FlightAware Approximate
11:27PM 46.9397 -109.6475 195° South 463 533 43,000  Level Salt Lake Center
11:28PM 46.9261 -109.6449 194° South  Level FlightAware Approximate
11:28PM 46.8136 -109.6878 192° South 462 532 43,000  Level Salt Lake Center
11:29PM 46.8034 -109.6890 194° South  Level FlightAware Approximate
11:29PM 46.6811 -109.7358 194° South 470 541 43,000  Level Salt Lake Center
11:30PM 46.5572 -109.7797 194° South 463 533 43,000  Level Salt Lake Center
11:31PM 46.4319 -109.8231 193° South 464 534 43,000  Level Salt Lake Center
11:32PM 46.3067 -109.8656 193° South 464 534 43,000  Level Salt Lake Center
11:33PM 46.1819 -109.9103 194° South 464 534 43,000  Level Salt Lake Center
11:34PM 46.0553 -109.9528 193° South 467 537 43,000  Level Salt Lake Center
11:35PM 45.9281 -109.9956 193° South 470 541 43,000  Level Salt Lake Center
11:36PM 45.8000 -110.0375 193° South 473 544 43,000  Level Salt Lake Center
11:37PM 45.6731 -110.0794 193° South 472 543 43,000  Level Salt Lake Center
11:39PM 45.5197 -110.1289 193° South 472 543 43,000  Level Salt Lake Center
11:40PM 45.3925 -110.1722 193° South 472 543 43,000  Level Salt Lake Center
11:41PM 45.2631 -110.2128 192° South 475 547 43,000  Level Salt Lake Center
11:42PM 45.1342 -110.2542 193° South 476 548 43,000  Level Salt Lake Center
11:43PM 44.9933 -110.2992 193° South 474 545 43,000  Level Salt Lake Center
11:44PM 44.8697 -110.3397 193° South 474 545 43,000  Level Salt Lake Center
11:45PM 44.7458 -110.3789 193° South 474 545 43,000  Level Salt Lake Center
11:46PM 44.6042 -110.4231 193° South 466 536 43,000  Level Salt Lake Center
11:47PM 44.4822 -110.4628 193° South 466 536 43,000  Level Salt Lake Center
11:48PM 44.3592 -110.5017 193° South 471 542 43,000  Level Salt Lake Center
11:49PM 44.2172 -110.5483 193° South 466 536 43,000  Level Salt Lake Center
11:50PM 44.0961 -110.5867 193° South 465 535 43,000  Level Salt Lake Center
11:51PM 43.9725 -110.6250 193° South 470 541 43,000  Level Salt Lake Center
11:52PM 43.8328 -110.6675 192° South 462 532 43,000  Level Salt Lake Center
11:53PM 43.7125 -110.7056 193° South 463 533 43,000  Level Salt Lake Center
11:54PM 43.5875 -110.7447 193° South 474 545 43,000  Level Salt Lake Center
11:55PM 43.4483 -110.7986 196° South 469 540 43,000  Level Salt Lake Center
11:56PM 43.3306 -110.8450 196° South 462 532 43,000  Level Salt Lake Center
11:57PM 43.2092 -110.8897 195° South 468 539 43,000  Level Salt Lake Center
11:58PM 43.0692 -110.9433 196° South 468 539 43,000  Level Salt Lake Center
11:59PM 42.9481 -110.9881 195° South 470 541 43,000  Level Salt Lake Center
12:00AM 42.8075 -111.0392 195° South 467 537 43,000  Level Salt Lake Center
12:01AM 42.7025 -111.0797 196° South 468 539 43,000  Level Salt Lake Center
12:02AM 42.5508 -111.1350 195° South 470 541 43,000  Level Salt Lake Center
12:03AM 42.4247 -111.1822 195° South 470 541 43,000  Level Salt Lake Center
12:04AM 42.2981 -111.2272 195° South 472 543 43,000  Level Salt Lake Center
12:05AM 42.1717 -111.2731 195° South 471 542 43,000  Level Salt Lake Center
12:06AM 42.0447 -111.3189 195° South 473 544 43,000  Level Salt Lake Center
12:07AM 41.9189 -111.3639 195° South 470 541 43,000  Level Salt Lake Center
12:08AM 41.7933 -111.4106 195° South 469 540 43,000  Level Salt Lake Center
12:09AM 41.6661 -111.4558 195° South 472 543 43,000  Level Salt Lake Center
12:10AM 41.5381 -111.5000 194° South 475 547 43,000  Level Salt Lake Center
12:11AM 41.4108 -111.5456 195° South 472 543 43,000  Level Salt Lake Center
12:12AM 41.2850 -111.5900 195° South 468 539 43,000  Level Salt Lake Center
12:13AM 41.1575 -111.6350 195° South 470 541 43,000  Level Salt Lake Center
12:14AM 41.0272 -111.6811 195° South 474 545 43,000  Level Salt Lake Center
12:15AM 40.8964 -111.7253 194° South 473 544 43,000  Level Salt Lake Center
12:16AM 40.7667 -111.7706 195° South 474 545 43,000  Level Salt Lake Center
12:17AM 40.6156 -111.8247 195° South 470 541 43,000  Level Salt Lake Center
12:18AM 40.4856 -111.8697 195° South 478 550 43,000  Level Salt Lake Center
12:19AM 40.3569 -111.9122 194° South 479 551 43,000  Level Salt Lake Center
12:20AM 40.2308 -111.9703 199° South 481 554 43,000  Level Salt Lake Center
12:21AM 40.1103 -112.0403 204° Southwest 474 545 43,000  Level Salt Lake Center
12:22AM 39.9897 -112.1094 204° Southwest 474 545 43,000  Level Salt Lake Center
12:23AM 39.8694 -112.1786 204° Southwest 472 543 43,000  Level Salt Lake Center
12:24AM 39.7492 -112.2461 203° Southwest 471 542 43,000  Level Salt Lake Center
12:25AM 39.6297 -112.3139 204° Southwest 469 540 43,000  Level Salt Lake Center
12:26AM 39.5108 -112.3822 204° Southwest 466 536 43,000  Level Salt Lake Center
12:27AM 39.3900 -112.4511 204° Southwest 473 544 43,000  Level Salt Lake Center
12:28AM 39.2472 -112.5261 202° Southwest 465 535 43,000  Level Salt Lake Center
12:29AM 39.1300 -112.5939 204° Southwest 472 543 43,000  Level Salt Lake Center
12:30AM 39.0069 -112.6608 203° Southwest 478 550 43,000  Level Salt Lake Center
12:32AM 38.8853 -112.7286 203° Southwest 479 551 43,000  Level Salt Lake Center
12:33AM 38.7636 -112.7944 203° Southwest 476 548 43,000  Level Salt Lake Center
12:34AM 38.6439 -112.8603 203° Southwest 472 543 43,000  Level Salt Lake Center
12:35AM 38.5231 -112.9258 203° Southwest 472 543 43,000  Level Salt Lake Center
12:36AM 38.4011 -112.9911 203° Southwest 476 548 43,000  Level Salt Lake Center
12:37AM 38.2656 -113.0922 210° Southwest 472 543 43,000  Level Salt Lake Center
12:38AM 38.1567 -113.1797 212° Southwest 468 539 43,000  Level Salt Lake Center
12:39AM 38.0475 -113.2694 213° Southwest 470 541 43,000  Level Salt Lake Center
12:40AM 37.9369 -113.3581 212° Southwest 473 544 43,000  Level Salt Lake Center
12:41AM 37.8275 -113.4453 212° Southwest 470 541 43,000  Level Salt Lake Center
12:42AM 37.7200 -113.5314 212° Southwest 464 534 43,000  Level Salt Lake Center
12:43AM 37.6131 -113.6164 212° Southwest 459 528 43,000  Level Salt Lake Center
12:43AM 37.5244 -113.6825 211° Southwest 464 534 43,000  Level Los Angeles Center
12:44AM 37.4181 -113.7711 213° Southwest 461 531 43,000  Level Los Angeles Center
12:45AM 37.3078 -113.8561 212° Southwest 464 534 43,000  Level Los Angeles Center
12:47AM 37.1764 -113.9425 208° Southwest 465 535 43,000  Level Los Angeles Center
12:48AM 37.0561 -114.0097 204° Southwest 468 539 43,000  Level Los Angeles Center
12:49AM 36.9600 -114.0633 204° Southwest 470 541 43,000  Level Los Angeles Center
12:50AM 36.8186 -114.1447 205° Southwest 465 535 43,000  Level Los Angeles Center
12:51AM 36.6964 -114.2153 205° Southwest 468 539 43,000  Level Los Angeles Center
12:52AM 36.5817 -114.2808 205° Southwest 467 537 43,000  Level Los Angeles Center
12:53AM 36.4625 -114.3489 205° Southwest 468 539 43,000  Level Los Angeles Center
12:54AM 36.3425 -114.4178 205° Southwest 471 542 43,000 -600 Level Los Angeles Center
12:55AM 36.2253 -114.4833 204° Southwest 464 534 41,800 -1,320 Descending Los Angeles Center
12:56AM 36.1100 -114.5486 205° Southwest 457 526 40,400 -1,320 Descending Los Angeles Center
12:57AM 35.9872 -114.6181 205° Southwest 472 543 39,100 -1,320 Descending Los Angeles Center
12:58AM 35.8669 -114.6847 204° Southwest 472 543 37,800 -1,260 Descending Los Angeles Center
12:59AM 35.7461 -114.7522 204° Southwest 474 545 36,600 -1,380 Descending Los Angeles Center
01:00AM 35.5994 -114.8350 205° Southwest 479 551 35,100 -1,260 Descending Los Angeles Center
01:01AM 35.4786 -114.9019 204° Southwest 475 547 34,100 -600 Descending Los Angeles Center
01:02AM 35.3581 -114.9683 204° Southwest 474 545 34,000 -60 Descending Los Angeles Center
01:03AM 35.2350 -115.0361 204° Southwest 480 552 34,000  Level Los Angeles Center
01:04AM 35.1125 -115.1031 204° Southwest 481 554 34,000  Level Los Angeles Center
01:05AM 34.9911 -115.1694 204° Southwest 479 551 34,000  Level Los Angeles Center
01:06AM 34.8686 -115.2347 204° Southwest 478 550 34,000 -840 Level Los Angeles Center
01:07AM 34.7458 -115.3000 204° Southwest 479 551 32,300 -2,100 Descending Los Angeles Center
01:08AM 34.6272 -115.3636 204° Southwest 480 552 29,800 -2,460 Descending Los Angeles Center
01:09AM 34.5028 -115.4317 204° Southwest 488 562 27,300 -2,460 Descending Los Angeles Center
01:10AM 34.3833 -115.4967 204° Southwest 476 548 24,900 -2,220 Descending Los Angeles Center
01:11AM 34.2800 -115.5806 214° Southwest 451 519 22,900 -1,440 Descending Los Angeles Center
01:12AM 34.1722 -115.7003 223° Southwest 441 507 22,000 -480 Descending Los Angeles Center
01:13AM 34.0794 -115.7983 221° Southwest 442 509 22,000 -480 Level Los Angeles Center
01:14AM 33.9764 -115.8792 213° Southwest 443 510 21,100 -1,200 Descending Los Angeles Center
01:15AM 33.8769 -115.9606 214° Southwest 438 504 19,600 -1,260 Descending Los Angeles Center
01:16AM 33.7769 -116.0400 213° Southwest 433 498 18,300 -1,440 Descending Los Angeles Center
01:17AM 33.6603 -116.1331 214° Southwest 422 486 16,500 -1,140 Descending Los Angeles Center
01:18AM 33.5878 -116.2372 230° Southwest 410 472 16,000 -840 Descending Los Angeles Center
01:19AM 33.5306 -116.3558 240° Southwest 411 473 14,800 -1,380 Descending Los Angeles Center
01:20AM 33.4736 -116.4694 239° Southwest 405 466 13,300 -1,500 Descending Los Angeles Center
01:21AM 33.4239 -116.5683 239° Southwest 366 421 11,800 -1,500 Descending Los Angeles Center
01:22AM 33.3783 -116.6567 238° Southwest 328 377 10,300 -1,440 Descending Los Angeles Center
01:23AM 33.3272 -116.7586 239° Southwest 307 353 8,900 -960 Descending Los Angeles Center
01:24AM 33.2872 -116.8353 238° Southwest 287 330 8,400 -840 Descending Los Angeles Center
01:26AM 33.2500 -116.9167 241° Southwest 259 298 7,200 -1,320 Descending Southern California TRACON
01:27AM 33.2000 -116.9833 228° Southwest 251 289 5,700 -1,620 Descending Southern California TRACON
01:27AM 33.1667 -117.0500 239° Southwest 251 289 4,200 -1,320 Descending Southern California TRACON
01:28AM 33.1500 -117.1167 253° West 206 237 3,200 -1,200 Descending Southern California TRACON
01:30AM 33.1500 -117.1833 270° West 169 194 1,800 -1,080 Descending Southern California TRACON
01:30AM 33.1333 -117.2333 248° West 126 145 1,100 -780 Descending Southern California TRACON